Jury M — 3EOG2 — position and weather

sailwx.info

Track history (hours):
 
Tides and Currents Weather Stations Pressure Air Temp Water Temp Dewpoint Dewpoint Depression Visibility Wind Speed Wind Dir Waves Ship Positions

Jury M

Last reported at 2015-Aug-31 21:30 UTC. Time now 2015-Aug-31 21:54 UTC.
Position N 34°52' E 140°12'.

Length 182 m; draft 7.5 m.

Type: Cargo ship. MMSI: 355723000.

Date/timePositionNaut miles runAvg speedWind from/ knotsBaromVisibWave heightAir tempDewpointWater temp
2015-Aug-31 21:30N 34°52' E 140°12'1 0.9
2015-Aug-31 20:33N 34°51' E 140°12'1 1.1
2015-Aug-31 19:30N 34°50' E 140°11'2 0.8
2015-Aug-31 17:30N 34°49' E 140°11'1 0.6
2015-Aug-31 16:24N 34°48' E 140°11'1 0.7
2015-Aug-31 15:33N 34°48' E 140°10'1 0.6
2015-Aug-31 14:30N 34°47' E 140°10'0 0.4
2015-Aug-31 13:30N 34°47' E 140°10'0 0.2
2015-Aug-31 12:30N 34°47' E 140°10'0 0.1
2015-Aug-31 11:18N 34°47' E 140°10'0 0.0
2015-Aug-31 10:24N 34°47' E 140°10'0 0.2
2015-Aug-31 09:33N 34°47' E 140°10'1 0.5
2015-Aug-31 07:30N 34°46' E 140°10'2 0.6
2015-Aug-31 04:30N 34°44' E 140°11'0 0.3
2015-Aug-31 03:24N 34°44' E 140°11'0 0.3
2015-Aug-31 02:30N 34°43' E 140°12'1 0.6
2015-Aug-31 00:33N 34°42' E 140°11'6 1.5
2015-Aug-30 20:26N 34°37' E 140°06'0 0.2
2015-Aug-30 19:32N 34°37' E 140°06'0 0.2
2015-Aug-30 18:20N 34°37' E 140°06'6 0.4
2015-Aug-30 01:33N 34°31' E 140°06'10 9.7
2015-Aug-30 00:30N 34°29' E 139°54'1511.9
2015-Aug-29 23:16N 34°30' E 139°36'22 1.0
2015-Aug-29 00:33N 34°33' E 140°03'2 1.7
2015-Aug-28 23:30N 34°34' E 140°04'3 1.6
2015-Aug-28 21:33N 34°36' E 140°07'2 1.4
2015-Aug-28 20:10N 34°38' E 140°07'2 1.2
2015-Aug-28 18:06N 34°41' E 140°08'1 0.9
2015-Aug-28 17:10N 34°42' E 140°08'1 0.5
2015-Aug-28 15:29N 34°42' E 140°09'1 0.6
2015-Aug-28 14:11N 34°43' E 140°09'2 1.0
2015-Aug-28 12:33N 34°44' E 140°09'1010.1
2015-Aug-28 11:33N 34°47' E 139°57'1111.0
2015-Aug-28 10:33N 34°53' E 139°45'1212.1
2015-Aug-28 09:33N 35°05' E 139°44'1211.8
2015-Aug-28 08:33N 35°16' E 139°45'10 9.8
2015-Aug-28 07:33N 35°26' E 139°45'10 9.9
2015-Aug-28 06:34N 35°31' E 139°56'9 9.0
2015-Aug-28 05:32N 35°36' E 140°05'0 0.1
2015-Aug-28 04:31N 35°36' E 140°05'0 0.0
2015-Aug-28 03:31N 35°36' E 140°05'0 0.0
2015-Aug-28 02:31N 35°36' E 140°05'0 0.0
2015-Aug-28 01:31N 35°36' E 140°05'0 0.0
2015-Aug-28 00:25N 35°36' E 140°05'0 0.0
2015-Aug-27 23:19N 35°36' E 140°05'0 0.0
2015-Aug-27 22:31N 35°36' E 140°05'0 0.0
2015-Aug-27 21:19N 35°36' E 140°05'0 0.0
2015-Aug-27 20:31N 35°36' E 140°05'0 0.0
2015-Aug-27 19:25N 35°36' E 140°05'0 0.0
2015-Aug-27 18:31N 35°36' E 140°05'0 0.0
2015-Aug-27 17:31N 35°36' E 140°05'0 0.0
2015-Aug-27 16:19N 35°36' E 140°05'0 0.0
2015-Aug-27 14:31N 35°36' E 140°05'0 0.0
2015-Aug-27 13:31N 35°36' E 140°05'0 0.0
2015-Aug-27 12:31N 35°36' E 140°05'0 0.0
2015-Aug-27 11:31N 35°36' E 140°05'0 0.0
2015-Aug-27 10:31N 35°36' E 140°05'0 0.0
2015-Aug-27 09:31N 35°36' E 140°05'0 0.0
2015-Aug-27 08:31N 35°36' E 140°05'0 0.0
2015-Aug-27 07:13N 35°36' E 140°05'0 0.0
2015-Aug-27 06:13N 35°36' E 140°05'0 0.0
2015-Aug-27 05:27N 35°36' E 140°05'0 0.0
2015-Aug-27 04:15N 35°36' E 140°05'0 0.0
2015-Aug-27 03:27N 35°36' E 140°05'0 0.0
2015-Aug-27 02:27N 35°36' E 140°05'0 0.0
2015-Aug-27 01:15N 35°36' E 140°05'0 0.0
2015-Aug-27 00:33N 35°36' E 140°05'0 0.0
2015-Aug-26 23:21N 35°36' E 140°05'0 0.0
2015-Aug-26 22:33N 35°36' E 140°05'0 0.0
2015-Aug-26 21:15N 35°36' E 140°05'0 0.0
2015-Aug-26 20:33N 35°36' E 140°05'0 0.0
2015-Aug-26 19:27N 35°36' E 140°05'0 0.0
2015-Aug-26 18:33N 35°36' E 140°05'0 0.0
2015-Aug-26 17:33N 35°36' E 140°05'0 0.0
2015-Aug-26 16:33N 35°36' E 140°05'0 0.0
2015-Aug-26 15:33N 35°36' E 140°05'0 0.0
2015-Aug-26 14:33N 35°36' E 140°05'0 0.0
2015-Aug-26 13:33N 35°36' E 140°05'0 0.0
2015-Aug-26 12:21N 35°36' E 140°05'0 0.0
2015-Aug-26 11:15N 35°36' E 140°05'0 0.0
2015-Aug-26 10:27N 35°36' E 140°05'0 0.0
2015-Aug-26 09:33N 35°36' E 140°05'0 0.0
2015-Aug-26 08:27N 35°36' E 140°05'0 0.0
2015-Aug-26 07:33N 35°36' E 140°05'0 0.0
2015-Aug-26 06:27N 35°36' E 140°05'0 0.0
2015-Aug-26 05:33N 35°36' E 140°05'0 0.0
2015-Aug-26 04:15N 35°36' E 140°05'0 0.0
2015-Aug-26 03:27N 35°36' E 140°05'0 0.0
2015-Aug-26 02:33N 35°36' E 140°05'0 0.0
2015-Aug-26 01:33N 35°36' E 140°05'0 0.0
2015-Aug-26 00:33N 35°36' E 140°05'0 0.0
2015-Aug-25 23:15N 35°36' E 140°05'0 0.0
2015-Aug-25 22:33N 35°36' E 140°05'0 0.0
2015-Aug-25 21:27N 35°36' E 140°05'0 0.0
2015-Aug-25 19:33N 35°36' E 140°05'0 0.0
2015-Aug-25 18:21N 35°36' E 140°05'0 0.0
2015-Aug-25 17:27N 35°36' E 140°05'0 0.1
2015-Aug-25 16:27N 35°36' E 140°05'0 0.1
2015-Aug-25 15:33N 35°36' E 140°05'0 0.0
2015-Aug-25 14:27N 35°36' E 140°05'0 0.0
2015-Aug-25 12:27N 35°36' E 140°05'0 0.0
2015-Aug-25 11:33N 35°36' E 140°05'0 0.0
2015-Aug-25 10:33N 35°36' E 140°05'0 0.0
2015-Aug-25 09:15N 35°36' E 140°05'0 0.1
2015-Aug-25 08:33N 35°36' E 140°05'0 0.0
2015-Aug-25 07:27N 35°36' E 140°05'0 0.0
2015-Aug-25 06:33N 35°36' E 140°05'0 0.0
2015-Aug-25 05:33N 35°36' E 140°05'0 0.0
2015-Aug-25 04:33N 35°36' E 140°05'0 0.0
2015-Aug-25 03:33N 35°36' E 140°05'0 0.0
2015-Aug-25 02:30N 35°36' E 140°05'0 0.0
2015-Aug-25 01:33N 35°36' E 140°05'0 0.0
2015-Aug-25 00:33N 35°36' E 140°05'0 0.0
2015-Aug-24 23:30N 35°36' E 140°05'0 0.0
2015-Aug-24 22:30N 35°36' E 140°05'0 0.0
2015-Aug-24 21:33N 35°36' E 140°05'0 0.0
2015-Aug-24 20:24N 35°36' E 140°05'0 0.0
2015-Aug-24 19:33N 35°36' E 140°05'0 0.0
2015-Aug-24 18:27N 35°36' E 140°05'0 0.0
2015-Aug-24 17:33N 35°36' E 140°05'0 0.0
2015-Aug-24 16:33N 35°36' E 140°05'0 0.0
2015-Aug-24 15:21N 35°36' E 140°05'0 0.0
2015-Aug-24 13:15N 35°36' E 140°05'0 0.0
2015-Aug-24 12:30N 35°36' E 140°05'0 0.0
2015-Aug-24 11:33N 35°36' E 140°05'0 0.0
2015-Aug-24 10:30N 35°36' E 140°05'0 0.0
2015-Aug-24 09:24N 35°36' E 140°05'0 0.0
2015-Aug-24 08:33N 35°36' E 140°05'0 0.0
2015-Aug-24 07:33N 35°36' E 140°05'0 0.0
2015-Aug-24 05:33N 35°36' E 140°05'0 0.0
2015-Aug-24 04:09N 35°36' E 140°05'0 0.0
2015-Aug-24 03:27N 35°36' E 140°05'0 0.0
2015-Aug-24 02:33N 35°36' E 140°05'0 0.0
2015-Aug-24 01:09N 35°36' E 140°05'0 0.0
2015-Aug-23 23:30N 35°36' E 140°05'1 0.9
2015-Aug-23 22:33N 35°36' E 140°05'5 5.0
2015-Aug-23 21:33N 35°34' E 139°59'0 0.1
2015-Aug-23 20:32N 35°34' E 139°59'0 0.0
2015-Aug-23 19:32N 35°34' E 139°59'0 0.1
2015-Aug-23 18:32N 35°34' E 139°59'0 0.0
2015-Aug-23 17:32N 35°34' E 139°59'0 0.0
2015-Aug-23 16:29N 35°34' E 139°59'0 0.0
2015-Aug-23 15:32N 35°34' E 139°59'1 0.7
2015-Aug-23 14:33N 35°33' E 139°58'8 8.0
2015-Aug-23 13:33N 35°28' E 139°51'1111.4
2015-Aug-23 12:33N 35°18' E 139°45'1110.6
2015-Aug-23 11:33N 35°07' E 139°46'1212.0
2015-Aug-23 10:33N 34°59' E 139°36'23711.2
2015-Aug-22 13:19N 33°50' E 135°01'811.1
2015-Aug-22 12:33N 33°58' E 134°58'1313.0
2015-Aug-22 11:33N 34°11' E 134°56'1312.7
2015-Aug-22 10:33N 34°23' E 135°00'1413.7
2015-Aug-22 09:34N 34°33' E 135°11'9 9.4
2015-Aug-22 08:33N 34°42' E 135°15'1 0.6
2015-Aug-22 07:33N 34°42' E 135°16'0 0.0
2015-Aug-22 06:33N 34°42' E 135°16'0 0.0
2015-Aug-22 05:27N 34°42' E 135°16'0 0.0
2015-Aug-22 04:33N 34°42' E 135°16'0 0.0
2015-Aug-22 03:33N 34°42' E 135°16'0 0.0
2015-Aug-22 02:27N 34°42' E 135°16'0 0.0
2015-Aug-22 01:33N 34°42' E 135°16'0 0.0
2015-Aug-22 00:33N 34°42' E 135°16'0 0.0
2015-Aug-21 23:33N 34°42' E 135°16'0 0.0
2015-Aug-21 22:33N 34°42' E 135°16'0 0.0
2015-Aug-21 21:33N 34°42' E 135°16'  
Track history (hours):
 
Tides and Currents Weather Stations Pressure Air Temp Water Temp Dewpoint Dewpoint Depression Visibility Wind Speed Wind Dir Waves Ship Positions

Jury M

Last reported at 2015-Aug-31 21:30 UTC. Time now 2015-Aug-31 21:54 UTC.
Position N 34°52' E 140°12'.

Length 182 m; draft 7.5 m.

Type: Cargo ship. MMSI: 355723000.

Date/timePositionNaut miles runAvg speedWind from/ knotsBaromVisibWave heightAir tempDewpointWater temp
2015-Aug-31 21:30N 34°52' E 140°12'1 0.9
2015-Aug-31 20:33N 34°51' E 140°12'1 1.1
2015-Aug-31 19:30N 34°50' E 140°11'2 0.8
2015-Aug-31 17:30N 34°49' E 140°11'1 0.6
2015-Aug-31 16:24N 34°48' E 140°11'1 0.7
2015-Aug-31 15:33N 34°48' E 140°10'1 0.6
2015-Aug-31 14:30N 34°47' E 140°10'0 0.4
2015-Aug-31 13:30N 34°47' E 140°10'0 0.2
2015-Aug-31 12:30N 34°47' E 140°10'0 0.1
2015-Aug-31 11:18N 34°47' E 140°10'0 0.0
2015-Aug-31 10:24N 34°47' E 140°10'0 0.2
2015-Aug-31 09:33N 34°47' E 140°10'1 0.5
2015-Aug-31 07:30N 34°46' E 140°10'2 0.6
2015-Aug-31 04:30N 34°44' E 140°11'0 0.3
2015-Aug-31 03:24N 34°44' E 140°11'0 0.3
2015-Aug-31 02:30N 34°43' E 140°12'1 0.6
2015-Aug-31 00:33N 34°42' E 140°11'6 1.5
2015-Aug-30 20:26N 34°37' E 140°06'0 0.2
2015-Aug-30 19:32N 34°37' E 140°06'0 0.2
2015-Aug-30 18:20N 34°37' E 140°06'6 0.4
2015-Aug-30 01:33N 34°31' E 140°06'10 9.7
2015-Aug-30 00:30N 34°29' E 139°54'1511.9
2015-Aug-29 23:16N 34°30' E 139°36'22 1.0
2015-Aug-29 00:33N 34°33' E 140°03'2 1.7
2015-Aug-28 23:30N 34°34' E 140°04'3 1.6
2015-Aug-28 21:33N 34°36' E 140°07'2 1.4
2015-Aug-28 20:10N 34°38' E 140°07'2 1.2
2015-Aug-28 18:06N 34°41' E 140°08'1 0.9
2015-Aug-28 17:10N 34°42' E 140°08'1 0.5
2015-Aug-28 15:29N 34°42' E 140°09'1 0.6
2015-Aug-28 14:11N 34°43' E 140°09'2 1.0
2015-Aug-28 12:33N 34°44' E 140°09'1010.1
2015-Aug-28 11:33N 34°47' E 139°57'1111.0
2015-Aug-28 10:33N 34°53' E 139°45'1212.1
2015-Aug-28 09:33N 35°05' E 139°44'1211.8
2015-Aug-28 08:33N 35°16' E 139°45'10 9.8
2015-Aug-28 07:33N 35°26' E 139°45'10 9.9
2015-Aug-28 06:34N 35°31' E 139°56'9 9.0
2015-Aug-28 05:32N 35°36' E 140°05'0 0.1
2015-Aug-28 04:31N 35°36' E 140°05'0 0.0
2015-Aug-28 03:31N 35°36' E 140°05'0 0.0
2015-Aug-28 02:31N 35°36' E 140°05'0 0.0
2015-Aug-28 01:31N 35°36' E 140°05'0 0.0
2015-Aug-28 00:25N 35°36' E 140°05'0 0.0
2015-Aug-27 23:19N 35°36' E 140°05'0 0.0
2015-Aug-27 22:31N 35°36' E 140°05'0 0.0
2015-Aug-27 21:19N 35°36' E 140°05'0 0.0
2015-Aug-27 20:31N 35°36' E 140°05'0 0.0
2015-Aug-27 19:25N 35°36' E 140°05'0 0.0
2015-Aug-27 18:31N 35°36' E 140°05'0 0.0
2015-Aug-27 17:31N 35°36' E 140°05'0 0.0
2015-Aug-27 16:19N 35°36' E 140°05'0 0.0
2015-Aug-27 14:31N 35°36' E 140°05'0 0.0
2015-Aug-27 13:31N 35°36' E 140°05'0 0.0
2015-Aug-27 12:31N 35°36' E 140°05'0 0.0
2015-Aug-27 11:31N 35°36' E 140°05'0 0.0
2015-Aug-27 10:31N 35°36' E 140°05'0 0.0
2015-Aug-27 09:31N 35°36' E 140°05'0 0.0
2015-Aug-27 08:31N 35°36' E 140°05'0 0.0
2015-Aug-27 07:13N 35°36' E 140°05'0 0.0
2015-Aug-27 06:13N 35°36' E 140°05'0 0.0
2015-Aug-27 05:27N 35°36' E 140°05'0 0.0
2015-Aug-27 04:15N 35°36' E 140°05'0 0.0
2015-Aug-27 03:27N 35°36' E 140°05'0 0.0
2015-Aug-27 02:27N 35°36' E 140°05'0 0.0
2015-Aug-27 01:15N 35°36' E 140°05'0 0.0
2015-Aug-27 00:33N 35°36' E 140°05'0 0.0
2015-Aug-26 23:21N 35°36' E 140°05'0 0.0
2015-Aug-26 22:33N 35°36' E 140°05'0 0.0
2015-Aug-26 21:15N 35°36' E 140°05'0 0.0
2015-Aug-26 20:33N 35°36' E 140°05'0 0.0
2015-Aug-26 19:27N 35°36' E 140°05'0 0.0
2015-Aug-26 18:33N 35°36' E 140°05'0 0.0
2015-Aug-26 17:33N 35°36' E 140°05'0 0.0
2015-Aug-26 16:33N 35°36' E 140°05'0 0.0
2015-Aug-26 15:33N 35°36' E 140°05'0 0.0
2015-Aug-26 14:33N 35°36' E 140°05'0 0.0
2015-Aug-26 13:33N 35°36' E 140°05'0 0.0
2015-Aug-26 12:21N 35°36' E 140°05'0 0.0
2015-Aug-26 11:15N 35°36' E 140°05'0 0.0
2015-Aug-26 10:27N 35°36' E 140°05'0 0.0
2015-Aug-26 09:33N 35°36' E 140°05'0 0.0
2015-Aug-26 08:27N 35°36' E 140°05'0 0.0
2015-Aug-26 07:33N 35°36' E 140°05'0 0.0
2015-Aug-26 06:27N 35°36' E 140°05'0 0.0
2015-Aug-26 05:33N 35°36' E 140°05'0 0.0
2015-Aug-26 04:15N 35°36' E 140°05'0 0.0
2015-Aug-26 03:27N 35°36' E 140°05'0 0.0
2015-Aug-26 02:33N 35°36' E 140°05'0 0.0
2015-Aug-26 01:33N 35°36' E 140°05'0 0.0
2015-Aug-26 00:33N 35°36' E 140°05'0 0.0
2015-Aug-25 23:15N 35°36' E 140°05'0 0.0
2015-Aug-25 22:33N 35°36' E 140°05'0 0.0
2015-Aug-25 21:27N 35°36' E 140°05'0 0.0
2015-Aug-25 19:33N 35°36' E 140°05'0 0.0
2015-Aug-25 18:21N 35°36' E 140°05'0 0.0
2015-Aug-25 17:27N 35°36' E 140°05'0 0.1
2015-Aug-25 16:27N 35°36' E 140°05'0 0.1
2015-Aug-25 15:33N 35°36' E 140°05'0 0.0
2015-Aug-25 14:27N 35°36' E 140°05'0 0.0
2015-Aug-25 12:27N 35°36' E 140°05'0 0.0
2015-Aug-25 11:33N 35°36' E 140°05'0 0.0
2015-Aug-25 10:33N 35°36' E 140°05'0 0.0
2015-Aug-25 09:15N 35°36' E 140°05'0 0.1
2015-Aug-25 08:33N 35°36' E 140°05'0 0.0
2015-Aug-25 07:27N 35°36' E 140°05'0 0.0
2015-Aug-25 06:33N 35°36' E 140°05'0 0.0
2015-Aug-25 05:33N 35°36' E 140°05'0 0.0
2015-Aug-25 04:33N 35°36' E 140°05'0 0.0
2015-Aug-25 03:33N 35°36' E 140°05'0 0.0
2015-Aug-25 02:30N 35°36' E 140°05'0 0.0
2015-Aug-25 01:33N 35°36' E 140°05'0 0.0
2015-Aug-25 00:33N 35°36' E 140°05'0 0.0
2015-Aug-24 23:30N 35°36' E 140°05'0 0.0
2015-Aug-24 22:30N 35°36' E 140°05'0 0.0
2015-Aug-24 21:33N 35°36' E 140°05'0 0.0
2015-Aug-24 20:24N 35°36' E 140°05'0 0.0
2015-Aug-24 19:33N 35°36' E 140°05'0 0.0
2015-Aug-24 18:27N 35°36' E 140°05'0 0.0
2015-Aug-24 17:33N 35°36' E 140°05'0 0.0
2015-Aug-24 16:33N 35°36' E 140°05'0 0.0
2015-Aug-24 15:21N 35°36' E 140°05'0 0.0
2015-Aug-24 13:15N 35°36' E 140°05'0 0.0
2015-Aug-24 12:30N 35°36' E 140°05'0 0.0
2015-Aug-24 11:33N 35°36' E 140°05'0 0.0
2015-Aug-24 10:30N 35°36' E 140°05'0 0.0
2015-Aug-24 09:24N 35°36' E 140°05'0 0.0
2015-Aug-24 08:33N 35°36' E 140°05'0 0.0
2015-Aug-24 07:33N 35°36' E 140°05'0 0.0
2015-Aug-24 05:33N 35°36' E 140°05'0 0.0
2015-Aug-24 04:09N 35°36' E 140°05'0 0.0
2015-Aug-24 03:27N 35°36' E 140°05'0 0.0
2015-Aug-24 02:33N 35°36' E 140°05'0 0.0
2015-Aug-24 01:09N 35°36' E 140°05'0 0.0
2015-Aug-23 23:30N 35°36' E 140°05'1 0.9
2015-Aug-23 22:33N 35°36' E 140°05'5 5.0
2015-Aug-23 21:33N 35°34' E 139°59'0 0.1
2015-Aug-23 20:32N 35°34' E 139°59'0 0.0
2015-Aug-23 19:32N 35°34' E 139°59'0 0.1
2015-Aug-23 18:32N 35°34' E 139°59'0 0.0
2015-Aug-23 17:32N 35°34' E 139°59'0 0.0
2015-Aug-23 16:29N 35°34' E 139°59'0 0.0
2015-Aug-23 15:32N 35°34' E 139°59'1 0.7
2015-Aug-23 14:33N 35°33' E 139°58'8 8.0
2015-Aug-23 13:33N 35°28' E 139°51'1111.4
2015-Aug-23 12:33N 35°18' E 139°45'1110.6
2015-Aug-23 11:33N 35°07' E 139°46'1212.0
2015-Aug-23 10:33N 34°59' E 139°36'23711.2
2015-Aug-22 13:19N 33°50' E 135°01'811.1
2015-Aug-22 12:33N 33°58' E 134°58'1313.0
2015-Aug-22 11:33N 34°11' E 134°56'1312.7
2015-Aug-22 10:33N 34°23' E 135°00'1413.7
2015-Aug-22 09:34N 34°33' E 135°11'9 9.4
2015-Aug-22 08:33N 34°42' E 135°15'1 0.6
2015-Aug-22 07:33N 34°42' E 135°16'0 0.0
2015-Aug-22 06:33N 34°42' E 135°16'0 0.0
2015-Aug-22 05:27N 34°42' E 135°16'0 0.0
2015-Aug-22 04:33N 34°42' E 135°16'0 0.0
2015-Aug-22 03:33N 34°42' E 135°16'0 0.0
2015-Aug-22 02:27N 34°42' E 135°16'0 0.0
2015-Aug-22 01:33N 34°42' E 135°16'0 0.0
2015-Aug-22 00:33N 34°42' E 135°16'0 0.0
2015-Aug-21 23:33N 34°42' E 135°16'0 0.0
2015-Aug-21 22:33N 34°42' E 135°16'0 0.0
2015-Aug-21 21:33N 34°42' E 135°16'  

Dump ship's entire track history